Portage, MI (49081)

4:08 PM EDT on July 30, 2016 (GMT -0400)
Austin Lake | | Change Station

Elev 869 ft 42.17 °N, 85.56 °W | Updated 23 minutes ago

Rain
Rain
71.5 °F
Feels Like 71.5 °F
N
0.0
Wind Variable Wind from NW
Gusts 1.0 mph

Today
High -- | Low -- °F
--% Chance of Precip.
Yesterday
High -- | Low -- °F
Precip. -- in
Pressure 29.98 in
Visibility 10.0 miles
Clouds Mostly Cloudy 1600 ft
Overcast 2400 ft
Dew Point 68 °F
Humidity 90%
Rainfall 0.43 in
Snow Depth Not available.
6:33 AM 9:03 PM
Waning Crescent, 11% visible
METAR KAZO 301953Z 00000KT 10SM BKN016 OVC024 24/19 A2999 RMK AO2 SLP152 T02390189
Pressure 29.98 in
Visibility 10.0 miles
Clouds Mostly Cloudy 1600 ft
Overcast 2400 ft
Dew Point 68 °F
Humidity 90%
Rainfall 0.43 in
Snow Depth Not available.
6:33 AM 9:03 PM
Waning Crescent, 11% visible
METAR KAZO 301953Z 00000KT 10SM BKN016 OVC024 24/19 A2999 RMK AO2 SLP152 T02390189

10-Day Weather Forecast

Almanac

Astronomy

Jul. 30, 2016 Rise Set
Actual Time
Civil Twilight
Nautical Twilight
Astronomical Twilight
Moon
Length of Visible Light
Length of Day
Tomorrow will be .
, % of the Moon is Illuminated

Today's Extremes

State Highs State Lows

Community

WunderPhotos

Upload Photos

1,928,630 photos uploaded!

WunderBlog® & News

Nearby

Air Quality

  Air Quality AQ Index Pollutant
Not available.

Snow Depth

Station Depth Elevation

Earthquake Activity

City Distance Mag. Time & Date
Minimum magnitude displayed is 2.5.

Coastal Water Temperatures

Place Temperature

Stations

Nearby Weather Stations

Station Location Temp. Windchill Dew Point Humidity Wind Precip. Elev Updated Type
                   

Watches & Warnings

There are currently no watches in effect.